sensor_id;sensor_type;location;lat;lon;timestamp;P1;durP1;ratioP1;P2;durP2;ratioP2
76136;SDS011;68622;53.128;17.966;2023-12-20T00:01:35;9.80;;;3.50;;
76136;SDS011;68622;53.128;17.966;2023-12-20T00:04:02;8.80;;;3.30;;
76136;SDS011;68622;53.128;17.966;2023-12-20T00:06:28;7.80;;;2.60;;
76136;SDS011;68622;53.128;17.966;2023-12-20T00:08:54;6.90;;;2.60;;
76136;SDS011;68622;53.128;17.966;2023-12-20T00:11:20;10.10;;;3.10;;
76136;SDS011;68622;53.128;17.966;2023-12-20T00:13:46;8.80;;;2.70;;
76136;SDS011;68622;53.128;17.966;2023-12-20T00:16:12;6.40;;;2.40;;
76136;SDS011;68622;53.128;17.966;2023-12-20T00:18:38;6.10;;;2.20;;
76136;SDS011;68622;53.128;17.966;2023-12-20T00:21:04;6.50;;;2.40;;
76136;SDS011;68622;53.128;17.966;2023-12-20T00:23:30;7.90;;;2.60;;
76136;SDS011;68622;53.128;17.966;2023-12-20T00:25:56;9.20;;;3.10;;
76136;SDS011;68622;53.128;17.966;2023-12-20T00:28:22;6.50;;;2.30;;
76136;SDS011;68622;53.128;17.966;2023-12-20T00:30:48;8.90;;;3.40;;
76136;SDS011;68622;53.128;17.966;2023-12-20T00:33:14;8.10;;;3.00;;
76136;SDS011;68622;53.128;17.966;2023-12-20T00:35:40;10.50;;;3.30;;
76136;SDS011;68622;53.128;17.966;2023-12-20T00:38:06;7.80;;;2.70;;
76136;SDS011;68622;53.128;17.966;2023-12-20T00:40:34;9.60;;;2.90;;
76136;SDS011;68622;53.128;17.966;2023-12-20T00:43:00;8.50;;;3.30;;
76136;SDS011;68622;53.128;17.966;2023-12-20T00:45:26;10.60;;;3.40;;
76136;SDS011;68622;53.128;17.966;2023-12-20T00:47:52;9.20;;;3.50;;
76136;SDS011;68622;53.128;17.966;2023-12-20T00:50:17;10.90;;;3.50;;
76136;SDS011;68622;53.128;17.966;2023-12-20T00:52:43;9.00;;;3.90;;
76136;SDS011;68622;53.128;17.966;2023-12-20T00:55:09;7.70;;;3.00;;
76136;SDS011;68622;53.128;17.966;2023-12-20T00:57:35;8.60;;;3.50;;
76136;SDS011;68622;53.128;17.966;2023-12-20T01:00:01;7.90;;;2.90;;
76136;SDS011;68622;53.128;17.966;2023-12-20T01:02:28;8.40;;;3.30;;
76136;SDS011;68622;53.128;17.966;2023-12-20T01:04:54;7.40;;;2.80;;
76136;SDS011;68622;53.128;17.966;2023-12-20T01:07:19;9.50;;;3.50;;
76136;SDS011;68622;53.128;17.966;2023-12-20T01:09:45;6.60;;;2.90;;
76136;SDS011;68622;53.128;17.966;2023-12-20T01:12:11;7.50;;;3.20;;
76136;SDS011;68622;53.128;17.966;2023-12-20T01:14:37;7.50;;;3.20;;
76136;SDS011;68622;53.128;17.966;2023-12-20T01:17:05;8.30;;;3.10;;
76136;SDS011;68622;53.128;17.966;2023-12-20T01:19:31;7.90;;;3.20;;
76136;SDS011;68622;53.128;17.966;2023-12-20T01:21:57;9.50;;;3.40;;
76136;SDS011;68622;53.128;17.966;2023-12-20T01:24:23;7.80;;;3.50;;
76136;SDS011;68622;53.128;17.966;2023-12-20T01:26:48;8.40;;;3.30;;
76136;SDS011;68622;53.128;17.966;2023-12-20T01:29:14;8.70;;;3.90;;
76136;SDS011;68622;53.128;17.966;2023-12-20T01:31:41;8.20;;;3.30;;
76136;SDS011;68622;53.128;17.966;2023-12-20T01:34:07;8.30;;;3.50;;
76136;SDS011;68622;53.128;17.966;2023-12-20T01:36:33;8.40;;;3.00;;
76136;SDS011;68622;53.128;17.966;2023-12-20T01:38:59;7.70;;;3.10;;
76136;SDS011;68622;53.128;17.966;2023-12-20T01:41:25;8.70;;;3.20;;
76136;SDS011;68622;53.128;17.966;2023-12-20T01:43:51;7.90;;;3.00;;
76136;SDS011;68622;53.128;17.966;2023-12-20T01:46:19;7.50;;;3.20;;
76136;SDS011;68622;53.128;17.966;2023-12-20T01:48:46;9.10;;;3.20;;
76136;SDS011;68622;53.128;17.966;2023-12-20T01:51:13;8.30;;;3.40;;
76136;SDS011;68622;53.128;17.966;2023-12-20T01:53:39;8.40;;;3.30;;
76136;SDS011;68622;53.128;17.966;2023-12-20T01:56:06;8.00;;;3.00;;
76136;SDS011;68622;53.128;17.966;2023-12-20T01:58:33;11.00;;;3.00;;
76136;SDS011;68622;53.128;17.966;2023-12-20T02:00:59;8.40;;;3.80;;
76136;SDS011;68622;53.128;17.966;2023-12-20T02:03:25;8.20;;;3.70;;
76136;SDS011;68622;53.128;17.966;2023-12-20T02:05:51;7.70;;;2.90;;
76136;SDS011;68622;53.128;17.966;2023-12-20T02:08:18;7.70;;;3.40;;
76136;SDS011;68622;53.128;17.966;2023-12-20T02:10:44;11.10;;;5.00;;
76136;SDS011;68622;53.128;17.966;2023-12-20T02:13:10;8.10;;;4.10;;
76136;SDS011;68622;53.128;17.966;2023-12-20T02:15:36;12.70;;;5.30;;
76136;SDS011;68622;53.128;17.966;2023-12-20T02:18:07;9.00;;;3.90;;
76136;SDS011;68622;53.128;17.966;2023-12-20T02:20:33;9.70;;;4.10;;
76136;SDS011;68622;53.128;17.966;2023-12-20T02:22:59;9.80;;;4.50;;
76136;SDS011;68622;53.128;17.966;2023-12-20T02:25:25;11.20;;;4.80;;
76136;SDS011;68622;53.128;17.966;2023-12-20T02:27:51;10.00;;;4.20;;
76136;SDS011;68622;53.128;17.966;2023-12-20T02:30:17;9.80;;;4.00;;
76136;SDS011;68622;53.128;17.966;2023-12-20T02:32:43;8.80;;;3.70;;
76136;SDS011;68622;53.128;17.966;2023-12-20T02:35:09;8.70;;;3.20;;
76136;SDS011;68622;53.128;17.966;2023-12-20T02:37:35;8.70;;;3.40;;
76136;SDS011;68622;53.128;17.966;2023-12-20T02:40:01;9.00;;;3.70;;
76136;SDS011;68622;53.128;17.966;2023-12-20T02:42:30;8.90;;;3.40;;
76136;SDS011;68622;53.128;17.966;2023-12-20T02:44:55;9.00;;;3.40;;
76136;SDS011;68622;53.128;17.966;2023-12-20T02:47:21;8.60;;;3.20;;
76136;SDS011;68622;53.128;17.966;2023-12-20T02:49:47;10.80;;;3.60;;
76136;SDS011;68622;53.128;17.966;2023-12-20T02:52:13;7.10;;;2.70;;
76136;SDS011;68622;53.128;17.966;2023-12-20T02:54:39;7.40;;;2.80;;
76136;SDS011;68622;53.128;17.966;2023-12-20T02:57:05;6.10;;;2.70;;
76136;SDS011;68622;53.128;17.966;2023-12-20T02:59:32;7.10;;;2.90;;
76136;SDS011;68622;53.128;17.966;2023-12-20T03:01:58;6.80;;;2.60;;
76136;SDS011;68622;53.128;17.966;2023-12-20T03:04:23;7.40;;;2.70;;
76136;SDS011;68622;53.128;17.966;2023-12-20T03:06:49;6.60;;;2.80;;
76136;SDS011;68622;53.128;17.966;2023-12-20T03:09:15;7.90;;;2.90;;
76136;SDS011;68622;53.128;17.966;2023-12-20T03:11:41;7.70;;;2.50;;
76136;SDS011;68622;53.128;17.966;2023-12-20T03:14:07;7.10;;;2.60;;
76136;SDS011;68622;53.128;17.966;2023-12-20T03:16:33;7.50;;;2.70;;
76136;SDS011;68622;53.128;17.966;2023-12-20T03:18:59;6.70;;;2.80;;
76136;SDS011;68622;53.128;17.966;2023-12-20T03:21:25;6.30;;;2.60;;
76136;SDS011;68622;53.128;17.966;2023-12-20T03:23:50;6.80;;;2.90;;
76136;SDS011;68622;53.128;17.966;2023-12-20T03:26:16;6.80;;;2.40;;
76136;SDS011;68622;53.128;17.966;2023-12-20T03:28:42;7.60;;;2.40;;
76136;SDS011;68622;53.128;17.966;2023-12-20T03:31:09;6.60;;;2.60;;
76136;SDS011;68622;53.128;17.966;2023-12-20T03:33:35;7.50;;;2.60;;
76136;SDS011;68622;53.128;17.966;2023-12-20T03:36:01;7.50;;;2.40;;
76136;SDS011;68622;53.128;17.966;2023-12-20T03:38:27;6.50;;;2.60;;
76136;SDS011;68622;53.128;17.966;2023-12-20T03:40:53;6.90;;;2.50;;
76136;SDS011;68622;53.128;17.966;2023-12-20T03:43:18;6.40;;;2.30;;
76136;SDS011;68622;53.128;17.966;2023-12-20T03:45:44;5.30;;;2.30;;
76136;SDS011;68622;53.128;17.966;2023-12-20T03:48:11;7.30;;;2.30;;
76136;SDS011;68622;53.128;17.966;2023-12-20T03:50:37;7.70;;;2.70;;
76136;SDS011;68622;53.128;17.966;2023-12-20T03:53:03;6.00;;;2.30;;
76136;SDS011;68622;53.128;17.966;2023-12-20T03:55:29;6.20;;;2.30;;
76136;SDS011;68622;53.128;17.966;2023-12-20T03:57:55;5.30;;;1.90;;
76136;SDS011;68622;53.128;17.966;2023-12-20T04:00:21;6.70;;;2.30;;
76136;SDS011;68622;53.128;17.966;2023-12-20T04:02:47;6.20;;;2.00;;
76136;SDS011;68622;53.128;17.966;2023-12-20T04:05:13;6.70;;;2.20;;
76136;SDS011;68622;53.128;17.966;2023-12-20T04:07:39;5.60;;;1.90;;
76136;SDS011;68622;53.128;17.966;2023-12-20T04:10:05;5.10;;;2.00;;
76136;SDS011;68622;53.128;17.966;2023-12-20T04:12:32;7.00;;;2.00;;
76136;SDS011;68622;53.128;17.966;2023-12-20T04:14:59;5.40;;;2.00;;
76136;SDS011;68622;53.128;17.966;2023-12-20T04:17:25;5.10;;;1.50;;
76136;SDS011;68622;53.128;17.966;2023-12-20T04:19:51;3.80;;;1.10;;
76136;SDS011;68622;53.128;17.966;2023-12-20T04:22:18;4.90;;;1.40;;
76136;SDS011;68622;53.128;17.966;2023-12-20T04:24:44;7.90;;;2.00;;
76136;SDS011;68622;53.128;17.966;2023-12-20T04:27:10;7.60;;;2.10;;
76136;SDS011;68622;53.128;17.966;2023-12-20T04:29:37;8.70;;;1.70;;
76136;SDS011;68622;53.128;17.966;2023-12-20T04:32:03;8.30;;;1.90;;
76136;SDS011;68622;53.128;17.966;2023-12-20T04:34:30;6.50;;;2.00;;
76136;SDS011;68622;53.128;17.966;2023-12-20T04:36:56;8.30;;;1.70;;
76136;SDS011;68622;53.128;17.966;2023-12-20T04:39:22;5.00;;;1.20;;
76136;SDS011;68622;53.128;17.966;2023-12-20T04:41:48;4.20;;;0.90;;
76136;SDS011;68622;53.128;17.966;2023-12-20T04:44:14;4.10;;;1.00;;
76136;SDS011;68622;53.128;17.966;2023-12-20T04:46:40;3.70;;;1.00;;
76136;SDS011;68622;53.128;17.966;2023-12-20T04:49:06;5.10;;;1.30;;
76136;SDS011;68622;53.128;17.966;2023-12-20T04:51:33;4.10;;;1.00;;
76136;SDS011;68622;53.128;17.966;2023-12-20T04:54:00;4.40;;;1.20;;
76136;SDS011;68622;53.128;17.966;2023-12-20T04:56:27;5.30;;;1.50;;
76136;SDS011;68622;53.128;17.966;2023-12-20T04:58:53;6.60;;;1.80;;
76136;SDS011;68622;53.128;17.966;2023-12-20T05:01:19;7.00;;;2.10;;
76136;SDS011;68622;53.128;17.966;2023-12-20T05:03:45;8.00;;;2.40;;
76136;SDS011;68622;53.128;17.966;2023-12-20T05:06:10;8.30;;;3.40;;
76136;SDS011;68622;53.128;17.966;2023-12-20T05:08:36;10.70;;;4.50;;
76136;SDS011;68622;53.128;17.966;2023-12-20T05:11:02;9.20;;;3.90;;
76136;SDS011;68622;53.128;17.966;2023-12-20T05:13:29;9.50;;;3.90;;
76136;SDS011;68622;53.128;17.966;2023-12-20T05:15:55;8.70;;;3.40;;
76136;SDS011;68622;53.128;17.966;2023-12-20T05:18:21;8.40;;;3.80;;
76136;SDS011;68622;53.128;17.966;2023-12-20T05:20:47;8.30;;;3.60;;
76136;SDS011;68622;53.128;17.966;2023-12-20T05:23:13;8.30;;;2.60;;
76136;SDS011;68622;53.128;17.966;2023-12-20T05:25:39;13.20;;;2.90;;
76136;SDS011;68622;53.128;17.966;2023-12-20T05:28:05;9.70;;;2.70;;
76136;SDS011;68622;53.128;17.966;2023-12-20T05:30:31;19.00;;;8.70;;
76136;SDS011;68622;53.128;17.966;2023-12-20T05:32:57;9.00;;;4.00;;
76136;SDS011;68622;53.128;17.966;2023-12-20T05:35:23;6.70;;;2.10;;
76136;SDS011;68622;53.128;17.966;2023-12-20T05:37:49;7.80;;;2.60;;
76136;SDS011;68622;53.128;17.966;2023-12-20T05:40:15;9.80;;;4.40;;
76136;SDS011;68622;53.128;17.966;2023-12-20T05:42:41;10.20;;;3.50;;
76136;SDS011;68622;53.128;17.966;2023-12-20T05:45:07;8.60;;;2.80;;
76136;SDS011;68622;53.128;17.966;2023-12-20T05:47:34;7.60;;;2.80;;
76136;SDS011;68622;53.128;17.966;2023-12-20T05:50:00;9.90;;;3.40;;
76136;SDS011;68622;53.128;17.966;2023-12-20T05:52:26;8.70;;;4.50;;
76136;SDS011;68622;53.128;17.966;2023-12-20T05:54:52;8.40;;;2.80;;
76136;SDS011;68622;53.128;17.966;2023-12-20T05:57:18;11.10;;;5.40;;
76136;SDS011;68622;53.128;17.966;2023-12-20T05:59:44;10.80;;;5.20;;
76136;SDS011;68622;53.128;17.966;2023-12-20T06:02:10;8.50;;;3.70;;
76136;SDS011;68622;53.128;17.966;2023-12-20T06:04:36;7.80;;;3.50;;
76136;SDS011;68622;53.128;17.966;2023-12-20T06:07:02;17.90;;;12.40;;
76136;SDS011;68622;53.128;17.966;2023-12-20T06:09:29;11.30;;;5.50;;
76136;SDS011;68622;53.128;17.966;2023-12-20T06:11:55;11.00;;;4.40;;
76136;SDS011;68622;53.128;17.966;2023-12-20T06:14:21;11.20;;;4.20;;
76136;SDS011;68622;53.128;17.966;2023-12-20T06:16:47;12.80;;;5.50;;
76136;SDS011;68622;53.128;17.966;2023-12-20T06:19:13;21.00;;;6.30;;
76136;SDS011;68622;53.128;17.966;2023-12-20T06:21:39;17.20;;;6.90;;
76136;SDS011;68622;53.128;17.966;2023-12-20T06:24:05;33.00;;;14.30;;
76136;SDS011;68622;53.128;17.966;2023-12-20T06:26:31;31.20;;;12.10;;
76136;SDS011;68622;53.128;17.966;2023-12-20T06:28:57;34.90;;;13.10;;
76136;SDS011;68622;53.128;17.966;2023-12-20T06:31:23;45.70;;;24.30;;
76136;SDS011;68622;53.128;17.966;2023-12-20T06:33:49;49.70;;;24.80;;
76136;SDS011;68622;53.128;17.966;2023-12-20T06:36:23;33.80;;;16.10;;
76136;SDS011;68622;53.128;17.966;2023-12-20T06:38:50;28.50;;;12.50;;
76136;SDS011;68622;53.128;17.966;2023-12-20T06:41:16;24.60;;;10.30;;
76136;SDS011;68622;53.128;17.966;2023-12-20T06:43:42;23.80;;;8.70;;
76136;SDS011;68622;53.128;17.966;2023-12-20T06:46:08;17.90;;;7.40;;
76136;SDS011;68622;53.128;17.966;2023-12-20T06:48:35;17.80;;;6.60;;
76136;SDS011;68622;53.128;17.966;2023-12-20T06:51:01;17.90;;;6.20;;
76136;SDS011;68622;53.128;17.966;2023-12-20T06:53:27;12.70;;;5.00;;
76136;SDS011;68622;53.128;17.966;2023-12-20T06:55:53;13.30;;;5.50;;
76136;SDS011;68622;53.128;17.966;2023-12-20T06:58:22;12.40;;;5.70;;
76136;SDS011;68622;53.128;17.966;2023-12-20T07:00:48;13.50;;;5.20;;
76136;SDS011;68622;53.128;17.966;2023-12-20T07:03:14;11.40;;;5.30;;
76136;SDS011;68622;53.128;17.966;2023-12-20T07:05:40;13.10;;;5.60;;
76136;SDS011;68622;53.128;17.966;2023-12-20T07:08:06;13.90;;;5.70;;
76136;SDS011;68622;53.128;17.966;2023-12-20T07:10:32;11.90;;;5.10;;
76136;SDS011;68622;53.128;17.966;2023-12-20T07:12:58;12.90;;;4.40;;
76136;SDS011;68622;53.128;17.966;2023-12-20T07:15:24;13.10;;;5.20;;
76136;SDS011;68622;53.128;17.966;2023-12-20T07:17:51;10.90;;;4.40;;
76136;SDS011;68622;53.128;17.966;2023-12-20T07:20:16;13.50;;;5.10;;
76136;SDS011;68622;53.128;17.966;2023-12-20T07:22:42;9.50;;;4.90;;
76136;SDS011;68622;53.128;17.966;2023-12-20T07:25:08;14.10;;;5.40;;
76136;SDS011;68622;53.128;17.966;2023-12-20T07:27:34;12.20;;;4.90;;
76136;SDS011;68622;53.128;17.966;2023-12-20T07:30:02;17.90;;;5.70;;
76136;SDS011;68622;53.128;17.966;2023-12-20T07:32:28;17.20;;;5.20;;
76136;SDS011;68622;53.128;17.966;2023-12-20T07:34:55;24.30;;;6.10;;
76136;SDS011;68622;53.128;17.966;2023-12-20T07:37:21;24.20;;;7.70;;
76136;SDS011;68622;53.128;17.966;2023-12-20T07:39:47;34.20;;;9.70;;
76136;SDS011;68622;53.128;17.966;2023-12-20T07:42:13;28.60;;;7.70;;
76136;SDS011;68622;53.128;17.966;2023-12-20T07:44:39;26.20;;;6.60;;
76136;SDS011;68622;53.128;17.966;2023-12-20T07:47:05;18.70;;;5.50;;
76136;SDS011;68622;53.128;17.966;2023-12-20T07:49:31;25.40;;;6.90;;
76136;SDS011;68622;53.128;17.966;2023-12-20T07:51:57;23.70;;;5.90;;
76136;SDS011;68622;53.128;17.966;2023-12-20T07:54:23;16.00;;;5.20;;
76136;SDS011;68622;53.128;17.966;2023-12-20T07:56:49;18.60;;;6.10;;
76136;SDS011;68622;53.128;17.966;2023-12-20T07:59:15;22.30;;;7.10;;
76136;SDS011;68622;53.128;17.966;2023-12-20T08:01:41;16.30;;;5.60;;
76136;SDS011;68622;53.128;17.966;2023-12-20T08:04:08;18.70;;;6.50;;
76136;SDS011;68622;53.128;17.966;2023-12-20T08:06:34;14.10;;;5.50;;
76136;SDS011;68622;53.128;17.966;2023-12-20T08:09:00;14.60;;;5.40;;
76136;SDS011;68622;53.128;17.966;2023-12-20T08:11:26;14.90;;;6.50;;
76136;SDS011;68622;53.128;17.966;2023-12-20T08:13:52;14.80;;;6.60;;
76136;SDS011;68622;53.128;17.966;2023-12-20T08:16:17;14.70;;;6.40;;
76136;SDS011;68622;53.128;17.966;2023-12-20T08:18:44;23.60;;;9.80;;
76136;SDS011;68622;53.128;17.966;2023-12-20T08:21:10;101.30;;;32.50;;
76136;SDS011;68622;53.128;17.966;2023-12-20T08:23:37;67.90;;;25.00;;
76136;SDS011;68622;53.128;17.966;2023-12-20T08:26:06;35.80;;;12.10;;
76136;SDS011;68622;53.128;17.966;2023-12-20T08:28:32;22.10;;;7.10;;
76136;SDS011;68622;53.128;17.966;2023-12-20T08:30:59;16.30;;;5.70;;
76136;SDS011;68622;53.128;17.966;2023-12-20T08:33:25;16.40;;;5.40;;
76136;SDS011;68622;53.128;17.966;2023-12-20T08:35:51;12.90;;;5.40;;
76136;SDS011;68622;53.128;17.966;2023-12-20T08:38:17;27.80;;;16.10;;
76136;SDS011;68622;53.128;17.966;2023-12-20T08:40:43;15.60;;;6.70;;
76136;SDS011;68622;53.128;17.966;2023-12-20T08:43:10;18.80;;;7.90;;
76136;SDS011;68622;53.128;17.966;2023-12-20T08:45:36;15.90;;;4.80;;
76136;SDS011;68622;53.128;17.966;2023-12-20T08:48:02;18.10;;;6.50;;
76136;SDS011;68622;53.128;17.966;2023-12-20T08:50:29;17.30;;;7.10;;
76136;SDS011;68622;53.128;17.966;2023-12-20T08:52:55;15.10;;;6.70;;
76136;SDS011;68622;53.128;17.966;2023-12-20T08:55:21;10.40;;;3.50;;
76136;SDS011;68622;53.128;17.966;2023-12-20T08:57:46;11.80;;;6.80;;
76136;SDS011;68622;53.128;17.966;2023-12-20T09:00:13;9.70;;;3.90;;
76136;SDS011;68622;53.128;17.966;2023-12-20T09:02:39;10.80;;;4.50;;
76136;SDS011;68622;53.128;17.966;2023-12-20T09:05:05;11.80;;;3.80;;
76136;SDS011;68622;53.128;17.966;2023-12-20T09:07:31;10.00;;;4.10;;
76136;SDS011;68622;53.128;17.966;2023-12-20T09:09:57;13.60;;;7.00;;
76136;SDS011;68622;53.128;17.966;2023-12-20T09:12:24;9.80;;;4.10;;
76136;SDS011;68622;53.128;17.966;2023-12-20T09:14:51;13.00;;;3.80;;
76136;SDS011;68622;53.128;17.966;2023-12-20T09:17:18;8.50;;;3.20;;
76136;SDS011;68622;53.128;17.966;2023-12-20T09:19:44;11.00;;;3.60;;
76136;SDS011;68622;53.128;17.966;2023-12-20T09:22:11;11.60;;;3.80;;
76136;SDS011;68622;53.128;17.966;2023-12-20T09:24:37;13.40;;;5.40;;
76136;SDS011;68622;53.128;17.966;2023-12-20T09:27:04;13.50;;;5.50;;
76136;SDS011;68622;53.128;17.966;2023-12-20T09:29:31;10.70;;;4.00;;
76136;SDS011;68622;53.128;17.966;2023-12-20T09:31:57;8.60;;;3.30;;
76136;SDS011;68622;53.128;17.966;2023-12-20T09:34:23;11.40;;;4.50;;
76136;SDS011;68622;53.128;17.966;2023-12-20T09:36:51;10.80;;;3.40;;
76136;SDS011;68622;53.128;17.966;2023-12-20T09:39:18;13.10;;;3.90;;
76136;SDS011;68622;53.128;17.966;2023-12-20T09:41:49;9.00;;;3.20;;
76136;SDS011;68622;53.128;17.966;2023-12-20T09:44:23;8.90;;;3.40;;
76136;SDS011;68622;53.128;17.966;2023-12-20T09:46:49;10.00;;;3.10;;
76136;SDS011;68622;53.128;17.966;2023-12-20T09:49:17;8.90;;;3.20;;
76136;SDS011;68622;53.128;17.966;2023-12-20T09:51:44;14.50;;;4.10;;
76136;SDS011;68622;53.128;17.966;2023-12-20T09:54:13;9.60;;;3.70;;
76136;SDS011;68622;53.128;17.966;2023-12-20T09:56:41;11.30;;;4.30;;
76136;SDS011;68622;53.128;17.966;2023-12-20T09:59:07;10.90;;;3.30;;
76136;SDS011;68622;53.128;17.966;2023-12-20T10:01:33;8.30;;;2.20;;
76136;SDS011;68622;53.128;17.966;2023-12-20T10:04:01;9.10;;;3.10;;
76136;SDS011;68622;53.128;17.966;2023-12-20T10:06:32;9.60;;;2.80;;
76136;SDS011;68622;53.128;17.966;2023-12-20T10:08:58;11.50;;;3.50;;
76136;SDS011;68622;53.128;17.966;2023-12-20T10:11:24;10.90;;;4.30;;
76136;SDS011;68622;53.128;17.966;2023-12-20T10:13:50;11.70;;;4.50;;
76136;SDS011;68622;53.128;17.966;2023-12-20T10:16:16;11.00;;;3.50;;
76136;SDS011;68622;53.128;17.966;2023-12-20T10:18:42;13.60;;;4.30;;
76136;SDS011;68622;53.128;17.966;2023-12-20T10:21:08;11.60;;;4.00;;
76136;SDS011;68622;53.128;17.966;2023-12-20T10:23:35;13.50;;;4.20;;
76136;SDS011;68622;53.128;17.966;2023-12-20T10:26:02;9.90;;;3.70;;
76136;SDS011;68622;53.128;17.966;2023-12-20T10:28:32;11.90;;;4.30;;
76136;SDS011;68622;53.128;17.966;2023-12-20T10:31:00;10.20;;;3.90;;
76136;SDS011;68622;53.128;17.966;2023-12-20T10:33:26;10.90;;;3.60;;
76136;SDS011;68622;53.128;17.966;2023-12-20T10:35:54;11.90;;;3.90;;
76136;SDS011;68622;53.128;17.966;2023-12-20T10:38:21;11.60;;;4.10;;
76136;SDS011;68622;53.128;17.966;2023-12-20T10:40:47;10.40;;;3.60;;
76136;SDS011;68622;53.128;17.966;2023-12-20T10:43:19;11.60;;;3.30;;
76136;SDS011;68622;53.128;17.966;2023-12-20T10:45:46;11.10;;;3.60;;
76136;SDS011;68622;53.128;17.966;2023-12-20T10:48:11;8.70;;;3.10;;
76136;SDS011;68622;53.128;17.966;2023-12-20T10:50:38;11.10;;;4.00;;
76136;SDS011;68622;53.128;17.966;2023-12-20T10:53:04;11.20;;;3.90;;
76136;SDS011;68622;53.128;17.966;2023-12-20T10:55:30;15.20;;;5.30;;
76136;SDS011;68622;53.128;17.966;2023-12-20T10:58:08;23.00;;;8.90;;
76136;SDS011;68622;53.128;17.966;2023-12-20T11:00:41;11.60;;;3.00;;
76136;SDS011;68622;53.128;17.966;2023-12-20T11:03:11;12.10;;;3.90;;
76136;SDS011;68622;53.128;17.966;2023-12-20T11:05:46;10.80;;;3.00;;
76136;SDS011;68622;53.128;17.966;2023-12-20T11:08:19;10.70;;;3.80;;
76136;SDS011;68622;53.128;17.966;2023-12-20T11:13:30;10.00;;;2.20;;
76136;SDS011;68622;53.128;17.966;2023-12-20T11:16:00;11.10;;;2.30;;
76136;SDS011;68622;53.128;17.966;2023-12-20T11:18:29;7.40;;;2.70;;
76136;SDS011;68622;53.128;17.966;2023-12-20T11:20:59;9.70;;;2.60;;
76136;SDS011;68622;53.128;17.966;2023-12-20T11:23:27;9.40;;;2.30;;
76136;SDS011;68622;53.128;17.966;2023-12-20T11:25:53;10.90;;;2.30;;
76136;SDS011;68622;53.128;17.966;2023-12-20T11:28:22;8.10;;;3.20;;
76136;SDS011;68622;53.128;17.966;2023-12-20T11:30:50;8.20;;;2.10;;
76136;SDS011;68622;53.128;17.966;2023-12-20T11:33:25;9.50;;;2.70;;
76136;SDS011;68622;53.128;17.966;2023-12-20T11:35:55;9.90;;;3.10;;
76136;SDS011;68622;53.128;17.966;2023-12-20T11:38:22;13.20;;;3.70;;
76136;SDS011;68622;53.128;17.966;2023-12-20T11:40:48;10.10;;;4.00;;
76136;SDS011;68622;53.128;17.966;2023-12-20T11:43:31;9.20;;;2.70;;
76136;SDS011;68622;53.128;17.966;2023-12-20T11:46:07;10.50;;;2.60;;
76136;SDS011;68622;53.128;17.966;2023-12-20T11:48:37;9.90;;;2.70;;
76136;SDS011;68622;53.128;17.966;2023-12-20T11:51:10;9.60;;;2.40;;
76136;SDS011;68622;53.128;17.966;2023-12-20T11:53:37;9.20;;;3.00;;
76136;SDS011;68622;53.128;17.966;2023-12-20T11:56:05;12.20;;;2.40;;
76136;SDS011;68622;53.128;17.966;2023-12-20T11:58:32;8.80;;;2.30;;
76136;SDS011;68622;53.128;17.966;2023-12-20T12:00:59;8.40;;;2.60;;
76136;SDS011;68622;53.128;17.966;2023-12-20T12:03:25;14.80;;;2.70;;
76136;SDS011;68622;53.128;17.966;2023-12-20T12:05:51;7.10;;;2.30;;
76136;SDS011;68622;53.128;17.966;2023-12-20T12:08:17;7.80;;;2.10;;
76136;SDS011;68622;53.128;17.966;2023-12-20T12:10:44;13.50;;;7.90;;
76136;SDS011;68622;53.128;17.966;2023-12-20T12:13:10;8.20;;;2.20;;
76136;SDS011;68622;53.128;17.966;2023-12-20T12:15:37;7.00;;;1.60;;
76136;SDS011;68622;53.128;17.966;2023-12-20T12:18:03;7.00;;;1.90;;
76136;SDS011;68622;53.128;17.966;2023-12-20T12:20:30;7.40;;;2.00;;
76136;SDS011;68622;53.128;17.966;2023-12-20T12:25:49;10.20;;;3.00;;
76136;SDS011;68622;53.128;17.966;2023-12-20T12:28:15;8.10;;;3.10;;
76136;SDS011;68622;53.128;17.966;2023-12-20T12:30:41;6.80;;;2.70;;
76136;SDS011;68622;53.128;17.966;2023-12-20T12:33:07;7.90;;;2.20;;
76136;SDS011;68622;53.128;17.966;2023-12-20T12:35:33;9.90;;;2.90;;
76136;SDS011;68622;53.128;17.966;2023-12-20T12:38:00;7.90;;;1.90;;
76136;SDS011;68622;53.128;17.966;2023-12-20T12:40:28;6.60;;;1.80;;
76136;SDS011;68622;53.128;17.966;2023-12-20T12:42:55;10.20;;;2.60;;
76136;SDS011;68622;53.128;17.966;2023-12-20T12:45:21;9.40;;;2.80;;
76136;SDS011;68622;53.128;17.966;2023-12-20T12:47:47;6.70;;;2.10;;
76136;SDS011;68622;53.128;17.966;2023-12-20T12:50:13;11.20;;;2.40;;
76136;SDS011;68622;53.128;17.966;2023-12-20T12:52:39;7.90;;;2.40;;
76136;SDS011;68622;53.128;17.966;2023-12-20T12:55:05;8.70;;;2.50;;
76136;SDS011;68622;53.128;17.966;2023-12-20T12:57:31;8.40;;;2.40;;
76136;SDS011;68622;53.128;17.966;2023-12-20T12:59:59;8.00;;;2.20;;
76136;SDS011;68622;53.128;17.966;2023-12-20T13:02:25;8.60;;;2.20;;
76136;SDS011;68622;53.128;17.966;2023-12-20T13:04:51;12.30;;;2.10;;
76136;SDS011;68622;53.128;17.966;2023-12-20T13:07:17;6.80;;;2.20;;
76136;SDS011;68622;53.128;17.966;2023-12-20T13:09:42;9.70;;;2.90;;
76136;SDS011;68622;53.128;17.966;2023-12-20T13:12:08;12.70;;;4.80;;
76136;SDS011;68622;53.128;17.966;2023-12-20T13:14:34;9.80;;;4.00;;
76136;SDS011;68622;53.128;17.966;2023-12-20T13:17:03;9.80;;;2.80;;
76136;SDS011;68622;53.128;17.966;2023-12-20T13:19:29;8.90;;;3.10;;
76136;SDS011;68622;53.128;17.966;2023-12-20T13:21:56;11.20;;;3.20;;
76136;SDS011;68622;53.128;17.966;2023-12-20T13:24:23;18.90;;;4.50;;
76136;SDS011;68622;53.128;17.966;2023-12-20T13:26:49;9.50;;;2.90;;
76136;SDS011;68622;53.128;17.966;2023-12-20T13:29:16;9.70;;;2.70;;
76136;SDS011;68622;53.128;17.966;2023-12-20T13:31:42;9.40;;;3.10;;
76136;SDS011;68622;53.128;17.966;2023-12-20T13:34:08;9.70;;;2.90;;
76136;SDS011;68622;53.128;17.966;2023-12-20T13:36:34;9.10;;;3.10;;
76136;SDS011;68622;53.128;17.966;2023-12-20T13:39:02;8.40;;;2.60;;
76136;SDS011;68622;53.128;17.966;2023-12-20T13:41:30;7.20;;;2.30;;
76136;SDS011;68622;53.128;17.966;2023-12-20T13:43:57;10.20;;;2.40;;
76136;SDS011;68622;53.128;17.966;2023-12-20T13:46:22;10.10;;;3.20;;
76136;SDS011;68622;53.128;17.966;2023-12-20T13:48:49;11.90;;;3.40;;
76136;SDS011;68622;53.128;17.966;2023-12-20T13:51:15;12.10;;;3.50;;
76136;SDS011;68622;53.128;17.966;2023-12-20T13:53:41;11.60;;;3.50;;
76136;SDS011;68622;53.128;17.966;2023-12-20T13:56:07;19.10;;;3.80;;
76136;SDS011;68622;53.128;17.966;2023-12-20T13:58:33;10.90;;;3.90;;
76136;SDS011;68622;53.128;17.966;2023-12-20T14:00:59;11.70;;;3.30;;
76136;SDS011;68622;53.128;17.966;2023-12-20T14:03:25;13.00;;;4.60;;
76136;SDS011;68622;53.128;17.966;2023-12-20T14:05:51;24.70;;;4.80;;
76136;SDS011;68622;53.128;17.966;2023-12-20T14:08:17;14.30;;;4.50;;
76136;SDS011;68622;53.128;17.966;2023-12-20T14:10:43;19.80;;;5.80;;
76136;SDS011;68622;53.128;17.966;2023-12-20T14:13:09;29.90;;;6.00;;
76136;SDS011;68622;53.128;17.966;2023-12-20T14:15:35;16.20;;;4.20;;
76136;SDS011;68622;53.128;17.966;2023-12-20T14:18:05;14.20;;;5.50;;
76136;SDS011;68622;53.128;17.966;2023-12-20T14:20:33;12.90;;;4.20;;
76136;SDS011;68622;53.128;17.966;2023-12-20T14:23:04;12.70;;;3.60;;
76136;SDS011;68622;53.128;17.966;2023-12-20T14:25:30;13.90;;;4.20;;
76136;SDS011;68622;53.128;17.966;2023-12-20T14:27:57;14.50;;;5.00;;
76136;SDS011;68622;53.128;17.966;2023-12-20T14:30:23;13.60;;;4.10;;